sensor_id;sensor_type;location;lat;lon;timestamp;P1;durP1;ratioP1;P2;durP2;ratioP2
73954;SDS011;62306;52.516;13.290;2023-09-30T00:01:13;8.93;;;2.92;;
73954;SDS011;62306;52.516;13.290;2023-09-30T00:03:40;9.68;;;3.40;;
73954;SDS011;62306;52.516;13.290;2023-09-30T00:06:07;8.50;;;2.15;;
73954;SDS011;62306;52.516;13.290;2023-09-30T00:08:34;5.75;;;2.00;;
73954;SDS011;62306;52.516;13.290;2023-09-30T00:11:01;8.27;;;2.13;;
73954;SDS011;62306;52.516;13.290;2023-09-30T00:13:30;9.68;;;2.80;;
73954;SDS011;62306;52.516;13.290;2023-09-30T00:15:58;5.97;;;2.25;;
73954;SDS011;62306;52.516;13.290;2023-09-30T00:18:24;9.68;;;2.60;;
73954;SDS011;62306;52.516;13.290;2023-09-30T00:20:52;6.97;;;2.72;;
73954;SDS011;62306;52.516;13.290;2023-09-30T00:23:19;14.25;;;3.05;;
73954;SDS011;62306;52.516;13.290;2023-09-30T00:25:46;10.15;;;2.33;;
73954;SDS011;62306;52.516;13.290;2023-09-30T00:28:13;11.18;;;2.33;;
73954;SDS011;62306;52.516;13.290;2023-09-30T00:30:42;13.35;;;3.08;;
73954;SDS011;62306;52.516;13.290;2023-09-30T00:33:12;8.15;;;2.00;;
73954;SDS011;62306;52.516;13.290;2023-09-30T00:35:39;10.18;;;2.22;;
73954;SDS011;62306;52.516;13.290;2023-09-30T00:38:06;10.27;;;2.10;;
73954;SDS011;62306;52.516;13.290;2023-09-30T00:40:33;10.32;;;3.00;;
73954;SDS011;62306;52.516;13.290;2023-09-30T00:43:00;11.48;;;2.17;;
73954;SDS011;62306;52.516;13.290;2023-09-30T00:45:27;10.00;;;2.10;;
73954;SDS011;62306;52.516;13.290;2023-09-30T00:47:56;10.70;;;2.40;;
73954;SDS011;62306;52.516;13.290;2023-09-30T00:50:23;12.45;;;2.53;;
73954;SDS011;62306;52.516;13.290;2023-09-30T00:52:52;12.35;;;2.30;;
73954;SDS011;62306;52.516;13.290;2023-09-30T00:55:19;9.30;;;2.40;;
73954;SDS011;62306;52.516;13.290;2023-09-30T00:57:46;14.30;;;2.47;;
73954;SDS011;62306;52.516;13.290;2023-09-30T01:00:14;11.52;;;2.88;;
73954;SDS011;62306;52.516;13.290;2023-09-30T01:02:41;12.55;;;3.03;;
73954;SDS011;62306;52.516;13.290;2023-09-30T01:05:10;11.00;;;2.50;;
73954;SDS011;62306;52.516;13.290;2023-09-30T01:07:37;9.23;;;2.53;;
73954;SDS011;62306;52.516;13.290;2023-09-30T01:10:04;12.20;;;4.18;;
73954;SDS011;62306;52.516;13.290;2023-09-30T01:12:32;12.18;;;2.45;;
73954;SDS011;62306;52.516;13.290;2023-09-30T01:14:59;16.67;;;4.07;;
73954;SDS011;62306;52.516;13.290;2023-09-30T01:17:27;9.45;;;2.90;;
73954;SDS011;62306;52.516;13.290;2023-09-30T01:19:54;15.50;;;2.70;;
73954;SDS011;62306;52.516;13.290;2023-09-30T01:22:25;11.23;;;2.75;;
73954;SDS011;62306;52.516;13.290;2023-09-30T01:24:55;14.07;;;3.28;;
73954;SDS011;62306;52.516;13.290;2023-09-30T01:27:21;12.45;;;3.03;;
73954;SDS011;62306;52.516;13.290;2023-09-30T01:29:48;11.60;;;2.67;;
73954;SDS011;62306;52.516;13.290;2023-09-30T01:32:15;13.13;;;3.20;;
73954;SDS011;62306;52.516;13.290;2023-09-30T01:34:42;16.65;;;3.80;;
73954;SDS011;62306;52.516;13.290;2023-09-30T01:37:09;16.20;;;2.90;;
73954;SDS011;62306;52.516;13.290;2023-09-30T01:39:37;11.43;;;2.97;;
73954;SDS011;62306;52.516;13.290;2023-09-30T01:42:04;11.30;;;3.33;;
73954;SDS011;62306;52.516;13.290;2023-09-30T01:44:31;16.13;;;3.20;;
73954;SDS011;62306;52.516;13.290;2023-09-30T01:46:58;13.07;;;3.00;;
73954;SDS011;62306;52.516;13.290;2023-09-30T01:49:26;19.35;;;3.35;;
73954;SDS011;62306;52.516;13.290;2023-09-30T01:51:52;14.73;;;3.10;;
73954;SDS011;62306;52.516;13.290;2023-09-30T01:54:19;16.15;;;3.33;;
73954;SDS011;62306;52.516;13.290;2023-09-30T01:56:48;19.35;;;3.88;;
73954;SDS011;62306;52.516;13.290;2023-09-30T01:59:15;18.05;;;2.97;;
73954;SDS011;62306;52.516;13.290;2023-09-30T02:01:43;14.65;;;3.40;;
73954;SDS011;62306;52.516;13.290;2023-09-30T02:04:11;18.85;;;3.03;;
73954;SDS011;62306;52.516;13.290;2023-09-30T02:06:40;20.02;;;3.70;;
73954;SDS011;62306;52.516;13.290;2023-09-30T02:09:07;13.93;;;2.90;;
73954;SDS011;62306;52.516;13.290;2023-09-30T02:11:34;11.90;;;2.60;;
73954;SDS011;62306;52.516;13.290;2023-09-30T02:14:03;14.38;;;2.85;;
73954;SDS011;62306;52.516;13.290;2023-09-30T02:16:31;12.70;;;3.45;;
73954;SDS011;62306;52.516;13.290;2023-09-30T02:18:58;11.15;;;2.67;;
73954;SDS011;62306;52.516;13.290;2023-09-30T02:21:25;16.58;;;3.40;;
73954;SDS011;62306;52.516;13.290;2023-09-30T02:23:53;14.13;;;3.05;;
73954;SDS011;62306;52.516;13.290;2023-09-30T02:26:21;22.95;;;6.00;;
73954;SDS011;62306;52.516;13.290;2023-09-30T02:28:50;17.20;;;5.35;;
73954;SDS011;62306;52.516;13.290;2023-09-30T02:31:19;16.77;;;5.68;;
73954;SDS011;62306;52.516;13.290;2023-09-30T02:33:45;24.13;;;5.55;;
73954;SDS011;62306;52.516;13.290;2023-09-30T02:36:12;16.48;;;3.53;;
73954;SDS011;62306;52.516;13.290;2023-09-30T02:38:40;23.08;;;5.82;;
73954;SDS011;62306;52.516;13.290;2023-09-30T02:41:08;17.33;;;3.97;;
73954;SDS011;62306;52.516;13.290;2023-09-30T02:43:35;19.25;;;3.60;;
73954;SDS011;62306;52.516;13.290;2023-09-30T02:46:03;14.27;;;3.92;;
73954;SDS011;62306;52.516;13.290;2023-09-30T02:48:31;13.70;;;3.47;;
73954;SDS011;62306;52.516;13.290;2023-09-30T02:50:58;13.75;;;3.20;;
73954;SDS011;62306;52.516;13.290;2023-09-30T02:53:25;16.85;;;3.03;;
73954;SDS011;62306;52.516;13.290;2023-09-30T02:55:52;13.00;;;3.03;;
73954;SDS011;62306;52.516;13.290;2023-09-30T02:58:21;16.27;;;3.10;;
73954;SDS011;62306;52.516;13.290;2023-09-30T03:00:48;13.20;;;3.17;;
73954;SDS011;62306;52.516;13.290;2023-09-30T03:03:16;11.80;;;3.28;;
73954;SDS011;62306;52.516;13.290;2023-09-30T03:05:44;17.40;;;3.50;;
73954;SDS011;62306;52.516;13.290;2023-09-30T03:08:12;12.38;;;3.58;;
73954;SDS011;62306;52.516;13.290;2023-09-30T03:10:39;13.38;;;3.30;;
73954;SDS011;62306;52.516;13.290;2023-09-30T03:13:06;13.13;;;3.45;;
73954;SDS011;62306;52.516;13.290;2023-09-30T03:15:34;12.30;;;3.00;;
73954;SDS011;62306;52.516;13.290;2023-09-30T03:18:01;14.27;;;3.03;;
73954;SDS011;62306;52.516;13.290;2023-09-30T03:20:28;13.43;;;3.03;;
73954;SDS011;62306;52.516;13.290;2023-09-30T03:22:57;14.68;;;3.90;;
73954;SDS011;62306;52.516;13.290;2023-09-30T03:25:24;17.90;;;3.33;;
73954;SDS011;62306;52.516;13.290;2023-09-30T03:27:52;15.25;;;3.22;;
73954;SDS011;62306;52.516;13.290;2023-09-30T03:30:18;17.45;;;3.78;;
73954;SDS011;62306;52.516;13.290;2023-09-30T03:32:46;20.92;;;3.58;;
73954;SDS011;62306;52.516;13.290;2023-09-30T03:35:13;19.30;;;4.03;;
73954;SDS011;62306;52.516;13.290;2023-09-30T03:37:42;14.20;;;3.50;;
73954;SDS011;62306;52.516;13.290;2023-09-30T03:40:11;16.33;;;3.88;;
73954;SDS011;62306;52.516;13.290;2023-09-30T03:42:39;19.38;;;3.75;;
73954;SDS011;62306;52.516;13.290;2023-09-30T03:45:08;18.40;;;3.95;;
73954;SDS011;62306;52.516;13.290;2023-09-30T03:47:35;15.57;;;3.20;;
73954;SDS011;62306;52.516;13.290;2023-09-30T03:50:03;14.82;;;3.35;;
73954;SDS011;62306;52.516;13.290;2023-09-30T03:52:32;14.65;;;3.90;;
73954;SDS011;62306;52.516;13.290;2023-09-30T03:55:00;14.77;;;3.70;;
73954;SDS011;62306;52.516;13.290;2023-09-30T03:57:31;15.20;;;3.50;;
73954;SDS011;62306;52.516;13.290;2023-09-30T03:59:58;15.13;;;4.15;;
73954;SDS011;62306;52.516;13.290;2023-09-30T04:02:25;24.98;;;5.15;;
73954;SDS011;62306;52.516;13.290;2023-09-30T04:04:52;14.48;;;3.42;;
73954;SDS011;62306;52.516;13.290;2023-09-30T04:07:21;18.80;;;4.50;;
73954;SDS011;62306;52.516;13.290;2023-09-30T04:09:52;16.20;;;4.20;;
73954;SDS011;62306;52.516;13.290;2023-09-30T04:12:20;14.73;;;4.03;;
73954;SDS011;62306;52.516;13.290;2023-09-30T04:14:50;14.32;;;3.45;;
73954;SDS011;62306;52.516;13.290;2023-09-30T04:17:17;12.38;;;3.53;;
73954;SDS011;62306;52.516;13.290;2023-09-30T04:19:44;14.10;;;4.20;;
73954;SDS011;62306;52.516;13.290;2023-09-30T04:22:12;20.30;;;3.72;;
73954;SDS011;62306;52.516;13.290;2023-09-30T04:24:41;18.30;;;3.83;;
73954;SDS011;62306;52.516;13.290;2023-09-30T04:27:08;23.38;;;4.05;;
73954;SDS011;62306;52.516;13.290;2023-09-30T04:29:35;19.00;;;3.97;;
73954;SDS011;62306;52.516;13.290;2023-09-30T04:32:04;20.88;;;3.72;;
73954;SDS011;62306;52.516;13.290;2023-09-30T04:34:31;11.48;;;3.65;;
73954;SDS011;62306;52.516;13.290;2023-09-30T04:36:58;17.90;;;3.83;;
73954;SDS011;62306;52.516;13.290;2023-09-30T04:39:25;18.67;;;3.72;;
73954;SDS011;62306;52.516;13.290;2023-09-30T04:41:52;12.50;;;3.70;;
73954;SDS011;62306;52.516;13.290;2023-09-30T04:44:20;22.58;;;5.15;;
73954;SDS011;62306;52.516;13.290;2023-09-30T04:46:47;12.43;;;3.38;;
73954;SDS011;62306;52.516;13.290;2023-09-30T04:49:15;25.58;;;4.68;;
73954;SDS011;62306;52.516;13.290;2023-09-30T04:51:42;18.95;;;4.75;;
73954;SDS011;62306;52.516;13.290;2023-09-30T04:54:09;17.73;;;3.90;;
73954;SDS011;62306;52.516;13.290;2023-09-30T04:56:36;16.38;;;3.55;;
73954;SDS011;62306;52.516;13.290;2023-09-30T04:59:04;14.10;;;3.53;;
73954;SDS011;62306;52.516;13.290;2023-09-30T05:01:31;18.02;;;3.97;;
73954;SDS011;62306;52.516;13.290;2023-09-30T05:03:58;18.70;;;4.10;;
73954;SDS011;62306;52.516;13.290;2023-09-30T05:06:26;22.45;;;4.20;;
73954;SDS011;62306;52.516;13.290;2023-09-30T05:08:53;25.52;;;4.57;;
73954;SDS011;62306;52.516;13.290;2023-09-30T05:11:21;15.43;;;3.40;;
73954;SDS011;62306;52.516;13.290;2023-09-30T05:13:48;13.95;;;3.50;;
73954;SDS011;62306;52.516;13.290;2023-09-30T05:16:16;11.10;;;3.75;;
73954;SDS011;62306;52.516;13.290;2023-09-30T05:18:43;17.73;;;3.78;;
73954;SDS011;62306;52.516;13.290;2023-09-30T05:21:10;15.45;;;4.40;;
73954;SDS011;62306;52.516;13.290;2023-09-30T05:23:38;18.52;;;5.10;;
73954;SDS011;62306;52.516;13.290;2023-09-30T05:26:05;22.88;;;5.15;;
73954;SDS011;62306;52.516;13.290;2023-09-30T05:28:32;21.65;;;4.82;;
73954;SDS011;62306;52.516;13.290;2023-09-30T05:30:59;23.90;;;5.80;;
73954;SDS011;62306;52.516;13.290;2023-09-30T05:33:26;19.45;;;4.65;;
73954;SDS011;62306;52.516;13.290;2023-09-30T05:35:53;23.27;;;4.78;;
73954;SDS011;62306;52.516;13.290;2023-09-30T05:38:21;18.27;;;3.92;;
73954;SDS011;62306;52.516;13.290;2023-09-30T05:40:49;16.67;;;4.18;;
73954;SDS011;62306;52.516;13.290;2023-09-30T05:43:16;15.57;;;3.83;;
73954;SDS011;62306;52.516;13.290;2023-09-30T05:45:44;19.23;;;4.07;;
73954;SDS011;62306;52.516;13.290;2023-09-30T05:48:14;14.52;;;3.85;;
73954;SDS011;62306;52.516;13.290;2023-09-30T05:50:41;17.15;;;3.75;;
73954;SDS011;62306;52.516;13.290;2023-09-30T05:53:09;16.95;;;4.00;;
73954;SDS011;62306;52.516;13.290;2023-09-30T05:55:37;16.73;;;4.13;;
73954;SDS011;62306;52.516;13.290;2023-09-30T05:58:08;17.30;;;3.28;;
73954;SDS011;62306;52.516;13.290;2023-09-30T06:00:35;19.38;;;4.07;;
73954;SDS011;62306;52.516;13.290;2023-09-30T06:03:03;12.18;;;3.55;;
73954;SDS011;62306;52.516;13.290;2023-09-30T06:05:31;19.73;;;5.47;;
73954;SDS011;62306;52.516;13.290;2023-09-30T06:07:59;17.88;;;4.15;;
73954;SDS011;62306;52.516;13.290;2023-09-30T06:10:27;17.38;;;3.97;;
73954;SDS011;62306;52.516;13.290;2023-09-30T06:12:54;13.25;;;3.65;;
73954;SDS011;62306;52.516;13.290;2023-09-30T06:15:24;17.23;;;3.97;;
73954;SDS011;62306;52.516;13.290;2023-09-30T06:17:52;13.23;;;3.65;;
73954;SDS011;62306;52.516;13.290;2023-09-30T06:20:19;17.55;;;4.47;;
73954;SDS011;62306;52.516;13.290;2023-09-30T06:22:47;18.13;;;4.25;;
73954;SDS011;62306;52.516;13.290;2023-09-30T06:25:15;19.45;;;3.75;;
73954;SDS011;62306;52.516;13.290;2023-09-30T06:27:42;16.48;;;3.53;;
73954;SDS011;62306;52.516;13.290;2023-09-30T06:30:10;16.77;;;3.97;;
73954;SDS011;62306;52.516;13.290;2023-09-30T06:32:39;16.33;;;3.80;;
73954;SDS011;62306;52.516;13.290;2023-09-30T06:35:07;19.15;;;4.22;;
73954;SDS011;62306;52.516;13.290;2023-09-30T06:37:35;12.88;;;3.55;;
73954;SDS011;62306;52.516;13.290;2023-09-30T06:40:03;23.52;;;4.95;;
73954;SDS011;62306;52.516;13.290;2023-09-30T06:42:32;21.17;;;3.85;;
73954;SDS011;62306;52.516;13.290;2023-09-30T06:45:00;16.50;;;4.00;;
73954;SDS011;62306;52.516;13.290;2023-09-30T06:47:26;18.13;;;4.35;;
73954;SDS011;62306;52.516;13.290;2023-09-30T06:49:59;25.27;;;4.53;;
73954;SDS011;62306;52.516;13.290;2023-09-30T06:52:32;20.75;;;4.78;;
73954;SDS011;62306;52.516;13.290;2023-09-30T06:54:59;18.77;;;3.78;;
73954;SDS011;62306;52.516;13.290;2023-09-30T06:57:26;18.45;;;4.43;;
73954;SDS011;62306;52.516;13.290;2023-09-30T06:59:54;12.20;;;4.03;;
73954;SDS011;62306;52.516;13.290;2023-09-30T07:02:21;14.05;;;3.95;;
73954;SDS011;62306;52.516;13.290;2023-09-30T07:04:49;17.63;;;4.68;;
73954;SDS011;62306;52.516;13.290;2023-09-30T07:07:17;15.98;;;4.43;;
73954;SDS011;62306;52.516;13.290;2023-09-30T07:09:44;13.48;;;3.38;;
73954;SDS011;62306;52.516;13.290;2023-09-30T12:53:35;8.07;;;1.80;;
73954;SDS011;62306;52.516;13.290;2023-09-30T12:56:02;10.50;;;1.80;;
73954;SDS011;62306;52.516;13.290;2023-09-30T12:58:29;8.40;;;1.60;;
73954;SDS011;62306;52.516;13.290;2023-09-30T13:00:56;7.75;;;1.60;;
73954;SDS011;62306;52.516;13.290;2023-09-30T13:03:23;8.05;;;1.33;;
73954;SDS011;62306;52.516;13.290;2023-09-30T13:05:50;8.38;;;1.60;;
73954;SDS011;62306;52.516;13.290;2023-09-30T13:08:17;9.05;;;1.60;;
73954;SDS011;62306;52.516;13.290;2023-09-30T13:10:45;6.60;;;1.60;;
73954;SDS011;62306;52.516;13.290;2023-09-30T13:13:13;9.45;;;2.05;;
73954;SDS011;62306;52.516;13.290;2023-09-30T13:15:40;8.13;;;1.80;;
73954;SDS011;62306;52.516;13.290;2023-09-30T13:18:07;7.05;;;1.40;;
73954;SDS011;62306;52.516;13.290;2023-09-30T13:20:34;6.38;;;1.65;;
73954;SDS011;62306;52.516;13.290;2023-09-30T13:23:01;12.77;;;1.67;;
73954;SDS011;62306;52.516;13.290;2023-09-30T13:25:28;10.43;;;1.60;;
73954;SDS011;62306;52.516;13.290;2023-09-30T13:27:56;8.50;;;1.67;;
73954;SDS011;62306;52.516;13.290;2023-09-30T13:30:23;7.25;;;1.73;;
73954;SDS011;62306;52.516;13.290;2023-09-30T13:32:50;10.25;;;1.60;;
73954;SDS011;62306;52.516;13.290;2023-09-30T13:35:17;4.95;;;1.27;;
73954;SDS011;62306;52.516;13.290;2023-09-30T13:37:44;8.50;;;1.52;;
73954;SDS011;62306;52.516;13.290;2023-09-30T13:40:12;10.40;;;2.00;;
73954;SDS011;62306;52.516;13.290;2023-09-30T13:42:39;8.88;;;2.97;;
73954;SDS011;62306;52.516;13.290;2023-09-30T13:45:09;10.82;;;1.60;;
73954;SDS011;62306;52.516;13.290;2023-09-30T13:47:36;8.55;;;1.85;;
73954;SDS011;62306;52.516;13.290;2023-09-30T13:50:04;8.10;;;1.65;;
73954;SDS011;62306;52.516;13.290;2023-09-30T13:52:32;6.63;;;1.83;;
73954;SDS011;62306;52.516;13.290;2023-09-30T13:54:59;12.55;;;1.80;;
73954;SDS011;62306;52.516;13.290;2023-09-30T13:57:27;6.85;;;1.52;;
73954;SDS011;62306;52.516;13.290;2023-09-30T13:59:54;7.03;;;1.50;;
73954;SDS011;62306;52.516;13.290;2023-09-30T14:02:22;6.13;;;1.83;;
73954;SDS011;62306;52.516;13.290;2023-09-30T14:04:49;5.88;;;1.42;;
73954;SDS011;62306;52.516;13.290;2023-09-30T14:07:16;5.50;;;1.50;;
73954;SDS011;62306;52.516;13.290;2023-09-30T14:09:44;8.10;;;1.63;;
73954;SDS011;62306;52.516;13.290;2023-09-30T14:12:11;7.85;;;1.25;;
73954;SDS011;62306;52.516;13.290;2023-09-30T14:14:38;7.63;;;1.30;;
73954;SDS011;62306;52.516;13.290;2023-09-30T14:17:04;10.80;;;1.90;;
73954;SDS011;62306;52.516;13.290;2023-09-30T14:19:36;7.28;;;1.60;;
73954;SDS011;62306;52.516;13.290;2023-09-30T14:22:05;16.63;;;1.90;;
73954;SDS011;62306;52.516;13.290;2023-09-30T14:24:33;11.27;;;1.67;;
73954;SDS011;62306;52.516;13.290;2023-09-30T14:27:00;7.22;;;2.17;;
73954;SDS011;62306;52.516;13.290;2023-09-30T14:29:28;9.00;;;1.98;;
73954;SDS011;62306;52.516;13.290;2023-09-30T14:31:55;9.45;;;2.35;;
73954;SDS011;62306;52.516;13.290;2023-09-30T14:34:22;11.02;;;2.28;;
73954;SDS011;62306;52.516;13.290;2023-09-30T14:36:50;6.35;;;1.85;;
73954;SDS011;62306;52.516;13.290;2023-09-30T14:39:17;12.18;;;2.03;;
73954;SDS011;62306;52.516;13.290;2023-09-30T14:41:44;5.55;;;1.17;;
73954;SDS011;62306;52.516;13.290;2023-09-30T14:44:11;7.47;;;1.65;;
73954;SDS011;62306;52.516;13.290;2023-09-30T14:46:38;4.88;;;1.75;;
73954;SDS011;62306;52.516;13.290;2023-09-30T14:49:05;7.00;;;1.58;;
73954;SDS011;62306;52.516;13.290;2023-09-30T14:51:32;6.25;;;1.75;;
73954;SDS011;62306;52.516;13.290;2023-09-30T14:54:01;13.15;;;1.63;;
73954;SDS011;62306;52.516;13.290;2023-09-30T14:56:29;7.53;;;1.92;;
73954;SDS011;62306;52.516;13.290;2023-09-30T14:58:56;5.57;;;2.35;;
73954;SDS011;62306;52.516;13.290;2023-09-30T15:01:23;9.13;;;1.95;;
73954;SDS011;62306;52.516;13.290;2023-09-30T15:03:51;8.40;;;2.63;;
73954;SDS011;62306;52.516;13.290;2023-09-30T15:06:18;9.70;;;1.90;;
73954;SDS011;62306;52.516;13.290;2023-09-30T15:08:46;7.65;;;1.63;;
73954;SDS011;62306;52.516;13.290;2023-09-30T15:11:14;11.82;;;2.78;;
73954;SDS011;62306;52.516;13.290;2023-09-30T15:13:41;6.70;;;2.33;;
73954;SDS011;62306;52.516;13.290;2023-09-30T15:16:19;6.38;;;1.70;;
73954;SDS011;62306;52.516;13.290;2023-09-30T15:18:47;4.40;;;1.50;;
73954;SDS011;62306;52.516;13.290;2023-09-30T15:21:14;4.18;;;1.85;;
73954;SDS011;62306;52.516;13.290;2023-09-30T15:23:42;6.60;;;1.75;;
73954;SDS011;62306;52.516;13.290;2023-09-30T15:26:09;11.15;;;2.28;;
73954;SDS011;62306;52.516;13.290;2023-09-30T15:28:38;11.30;;;2.40;;
73954;SDS011;62306;52.516;13.290;2023-09-30T15:31:04;7.20;;;2.05;;
73954;SDS011;62306;52.516;13.290;2023-09-30T15:33:32;11.15;;;2.38;;
73954;SDS011;62306;52.516;13.290;2023-09-30T15:35:59;17.90;;;2.42;;
73954;SDS011;62306;52.516;13.290;2023-09-30T15:38:34;7.20;;;1.95;;
73954;SDS011;62306;52.516;13.290;2023-09-30T15:41:01;7.18;;;1.88;;
73954;SDS011;62306;52.516;13.290;2023-09-30T15:43:28;9.85;;;1.92;;
73954;SDS011;62306;52.516;13.290;2023-09-30T15:45:57;6.10;;;1.63;;
73954;SDS011;62306;52.516;13.290;2023-09-30T15:48:23;5.00;;;1.70;;
73954;SDS011;62306;52.516;13.290;2023-09-30T15:50:51;7.25;;;2.00;;
73954;SDS011;62306;52.516;13.290;2023-09-30T15:53:18;8.27;;;2.60;;
73954;SDS011;62306;52.516;13.290;2023-09-30T15:55:44;9.93;;;2.58;;
73954;SDS011;62306;52.516;13.290;2023-09-30T15:58:11;14.05;;;2.13;;
73954;SDS011;62306;52.516;13.290;2023-09-30T16:00:38;11.80;;;4.22;;
73954;SDS011;62306;52.516;13.290;2023-09-30T16:03:08;9.55;;;3.03;;
73954;SDS011;62306;52.516;13.290;2023-09-30T16:05:36;8.55;;;4.18;;
73954;SDS011;62306;52.516;13.290;2023-09-30T16:08:04;10.32;;;2.70;;
73954;SDS011;62306;52.516;13.290;2023-09-30T16:10:31;8.48;;;2.70;;
73954;SDS011;62306;52.516;13.290;2023-09-30T16:12:59;12.23;;;4.57;;
73954;SDS011;62306;52.516;13.290;2023-09-30T16:15:26;7.57;;;2.30;;
73954;SDS011;62306;52.516;13.290;2023-09-30T16:17:53;7.72;;;2.15;;
73954;SDS011;62306;52.516;13.290;2023-09-30T16:20:21;9.60;;;4.45;;
73954;SDS011;62306;52.516;13.290;2023-09-30T16:22:50;8.30;;;2.63;;
73954;SDS011;62306;52.516;13.290;2023-09-30T16:25:17;12.45;;;3.03;;
73954;SDS011;62306;52.516;13.290;2023-09-30T16:27:44;15.10;;;3.20;;
73954;SDS011;62306;52.516;13.290;2023-09-30T16:30:11;11.10;;;2.58;;
73954;SDS011;62306;52.516;13.290;2023-09-30T16:32:38;5.88;;;2.25;;
73954;SDS011;62306;52.516;13.290;2023-09-30T16:35:05;11.57;;;2.72;;
73954;SDS011;62306;52.516;13.290;2023-09-30T16:37:35;9.80;;;3.00;;
73954;SDS011;62306;52.516;13.290;2023-09-30T16:40:02;8.82;;;2.10;;
73954;SDS011;62306;52.516;13.290;2023-09-30T16:42:29;13.70;;;2.95;;
73954;SDS011;62306;52.516;13.290;2023-09-30T16:44:57;18.10;;;6.05;;
73954;SDS011;62306;52.516;13.290;2023-09-30T16:47:24;23.45;;;7.43;;
73954;SDS011;62306;52.516;13.290;2023-09-30T16:49:51;18.20;;;5.00;;
73954;SDS011;62306;52.516;13.290;2023-09-30T16:52:18;14.50;;;4.63;;
73954;SDS011;62306;52.516;13.290;2023-09-30T16:54:46;14.95;;;4.13;;
73954;SDS011;62306;52.516;13.290;2023-09-30T16:57:13;21.92;;;7.07;;
73954;SDS011;62306;52.516;13.290;2023-09-30T16:59:40;11.40;;;4.90;;
73954;SDS011;62306;52.516;13.290;2023-09-30T17:02:07;17.95;;;5.60;;
73954;SDS011;62306;52.516;13.290;2023-09-30T17:04:34;20.48;;;4.97;;
73954;SDS011;62306;52.516;13.290;2023-09-30T17:07:01;14.55;;;4.43;;
73954;SDS011;62306;52.516;13.290;2023-09-30T17:09:28;12.25;;;3.60;;
73954;SDS011;62306;52.516;13.290;2023-09-30T17:11:56;14.95;;;5.28;;
73954;SDS011;62306;52.516;13.290;2023-09-30T17:14:23;9.75;;;4.22;;
73954;SDS011;62306;52.516;13.290;2023-09-30T17:16:50;11.00;;;3.85;;
73954;SDS011;62306;52.516;13.290;2023-09-30T17:19:19;15.88;;;5.00;;
73954;SDS011;62306;52.516;13.290;2023-09-30T17:21:46;12.88;;;3.83;;
73954;SDS011;62306;52.516;13.290;2023-09-30T17:24:13;12.35;;;4.25;;
73954;SDS011;62306;52.516;13.290;2023-09-30T17:26:40;12.32;;;3.67;;
73954;SDS011;62306;52.516;13.290;2023-09-30T17:29:08;11.80;;;3.30;;
73954;SDS011;62306;52.516;13.290;2023-09-30T17:31:35;15.38;;;4.57;;
73954;SDS011;62306;52.516;13.290;2023-09-30T17:34:02;9.95;;;3.72;;
73954;SDS011;62306;52.516;13.290;2023-09-30T17:36:30;14.85;;;5.32;;
73954;SDS011;62306;52.516;13.290;2023-09-30T17:38:57;14.95;;;5.18;;
73954;SDS011;62306;52.516;13.290;2023-09-30T17:41:24;13.88;;;3.95;;
73954;SDS011;62306;52.516;13.290;2023-09-30T17:43:51;8.35;;;2.90;;
73954;SDS011;62306;52.516;13.290;2023-09-30T17:46:19;13.57;;;3.83;;
73954;SDS011;62306;52.516;13.290;2023-09-30T17:48:46;16.05;;;3.42;;
73954;SDS011;62306;52.516;13.290;2023-09-30T17:51:14;9.63;;;3.63;;
73954;SDS011;62306;52.516;13.290;2023-09-30T17:53:44;11.73;;;3.38;;
73954;SDS011;62306;52.516;13.290;2023-09-30T17:56:14;10.90;;;3.58;;
73954;SDS011;62306;52.516;13.290;2023-09-30T17:58:41;12.55;;;3.72;;
73954;SDS011;62306;52.516;13.290;2023-09-30T18:01:08;11.57;;;3.95;;
73954;SDS011;62306;52.516;13.290;2023-09-30T18:03:36;12.52;;;4.25;;
73954;SDS011;62306;52.516;13.290;2023-09-30T18:06:04;13.65;;;2.97;;
73954;SDS011;62306;52.516;13.290;2023-09-30T18:08:31;10.15;;;3.20;;
73954;SDS011;62306;52.516;13.290;2023-09-30T18:10:58;12.20;;;3.00;;
73954;SDS011;62306;52.516;13.290;2023-09-30T18:13:26;9.50;;;3.13;;
73954;SDS011;62306;52.516;13.290;2023-09-30T18:15:53;13.73;;;3.20;;
73954;SDS011;62306;52.516;13.290;2023-09-30T18:18:20;12.40;;;3.95;;
73954;SDS011;62306;52.516;13.290;2023-09-30T18:20:48;9.60;;;3.33;;
73954;SDS011;62306;52.516;13.290;2023-09-30T18:23:15;11.57;;;3.90;;
73954;SDS011;62306;52.516;13.290;2023-09-30T18:25:42;15.00;;;7.68;;
73954;SDS011;62306;52.516;13.290;2023-09-30T18:28:09;15.40;;;3.72;;
73954;SDS011;62306;52.516;13.290;2023-09-30T18:30:37;11.60;;;2.75;;
73954;SDS011;62306;52.516;13.290;2023-09-30T18:33:05;7.55;;;3.00;;
73954;SDS011;62306;52.516;13.290;2023-09-30T18:35:32;10.45;;;2.83;;
73954;SDS011;62306;52.516;13.290;2023-09-30T18:38:03;7.72;;;3.35;;
73954;SDS011;62306;52.516;13.290;2023-09-30T18:40:30;11.13;;;3.88;;
73954;SDS011;62306;52.516;13.290;2023-09-30T18:42:57;18.08;;;5.72;;
73954;SDS011;62306;52.516;13.290;2023-09-30T18:45:24;12.73;;;3.25;;
73954;SDS011;62306;52.516;13.290;2023-09-30T18:47:52;10.77;;;4.05;;
73954;SDS011;62306;52.516;13.290;2023-09-30T18:50:19;12.45;;;3.95;;
73954;SDS011;62306;52.516;13.290;2023-09-30T18:52:46;13.50;;;3.70;;
73954;SDS011;62306;52.516;13.290;2023-09-30T18:55:15;11.18;;;4.28;;
73954;SDS011;62306;52.516;13.290;2023-09-30T18:57:43;12.07;;;3.45;;
73954;SDS011;62306;52.516;13.290;2023-09-30T19:00:10;7.00;;;2.88;;
73954;SDS011;62306;52.516;13.290;2023-09-30T19:02:38;9.65;;;3.30;;
73954;SDS011;62306;52.516;13.290;2023-09-30T19:05:05;7.45;;;2.40;;
73954;SDS011;62306;52.516;13.290;2023-09-30T19:07:33;8.70;;;3.20;;
73954;SDS011;62306;52.516;13.290;2023-09-30T19:10:00;9.43;;;2.58;;
73954;SDS011;62306;52.516;13.290;2023-09-30T19:12:29;9.98;;;3.38;;
73954;SDS011;62306;52.516;13.290;2023-09-30T19:14:55;9.60;;;3.00;;
73954;SDS011;62306;52.516;13.290;2023-09-30T19:17:22;10.13;;;3.10;;
73954;SDS011;62306;52.516;13.290;2023-09-30T19:19:49;12.38;;;3.85;;
73954;SDS011;62306;52.516;13.290;2023-09-30T19:22:16;13.77;;;3.60;;
73954;SDS011;62306;52.516;13.290;2023-09-30T19:24:43;13.27;;;3.75;;
73954;SDS011;62306;52.516;13.290;2023-09-30T19:27:12;8.40;;;3.60;;
73954;SDS011;62306;52.516;13.290;2023-09-30T19:29:41;6.30;;;3.58;;
73954;SDS011;62306;52.516;13.290;2023-09-30T19:32:11;13.15;;;3.85;;
73954;SDS011;62306;52.516;13.290;2023-09-30T19:34:38;8.88;;;3.33;;
73954;SDS011;62306;52.516;13.290;2023-09-30T19:37:05;7.80;;;3.63;;
73954;SDS011;62306;52.516;13.290;2023-09-30T19:39:32;12.88;;;3.58;;
73954;SDS011;62306;52.516;13.290;2023-09-30T19:41:59;10.50;;;3.40;;
73954;SDS011;62306;52.516;13.290;2023-09-30T19:44:25;13.57;;;3.35;;
73954;SDS011;62306;52.516;13.290;2023-09-30T19:46:53;6.28;;;3.30;;
73954;SDS011;62306;52.516;13.290;2023-09-30T19:49:20;10.15;;;3.17;;
73954;SDS011;62306;52.516;13.290;2023-09-30T19:51:47;6.57;;;2.90;;
73954;SDS011;62306;52.516;13.290;2023-09-30T19:54:14;8.98;;;3.50;;
73954;SDS011;62306;52.516;13.290;2023-09-30T19:56:42;10.35;;;3.42;;
73954;SDS011;62306;52.516;13.290;2023-09-30T19:59:09;11.93;;;3.25;;
73954;SDS011;62306;52.516;13.290;2023-09-30T20:01:36;12.68;;;3.67;;
73954;SDS011;62306;52.516;13.290;2023-09-30T20:04:06;13.65;;;3.60;;
73954;SDS011;62306;52.516;13.290;2023-09-30T20:06:32;12.85;;;3.17;;
73954;SDS011;62306;52.516;13.290;2023-09-30T20:08:59;9.25;;;2.95;;